首页
METAR-TAF:

METAR-TAF

机场 :

安徒生, 南卡罗来纳州, 美国

纬度: 34-29-52N, 经度: 082-42-35W, 海拔: 238米

当前天气观测

该预报发布于1小时和3分钟前的00:56 UTC
风速9节,风向东转东北
温度 12°C
湿度 38%
气压 1018 hPa
能見度: 16.1公里
阴天层高于6500英尺

METAR: KAND 170056Z AUTO 06009KT 10SM OVC065 12/M02 A3007 RMK AO2 SLP180 T01171017

时间: 20:59 (01:59 UTC)

预报

该预报发布于2小时和16分钟前的23:43 UTC
预报有效从17日的 00点(UTC)到 17日的 24点(UTC)
风速5节,风向东转东北
能見度: 10公里
少量云层高于4000英尺
多云层高于6000英尺
从 17日的 0600点(UTC)
风速9节,风向东北
能見度: 10公里
少量云层高于6000英尺
散云层高于15000英尺
从 17日的 1300点(UTC)
风速7节,风向东北
能見度: 10公里
少量云层高于25000英尺
从 17日的 2200点(UTC)
风速3节,风向东转东北
能見度: 10公里
少量云层高于20000英尺

TAF: KAND 162343Z 1700/1724 06005KT P6SM FEW040 BKN060 FM170600 04009KT P6SM FEW060 SCT150 FM171300 04007KT P6SM FEW250 FM172200 06003KT P6SM FEW200

超过4000个机场的气象观测和天气预报(METAR&TAF报告)。

可查询的气象台以黄色和红色小点在地图上表示。

将鼠标移到小点上方,可查看气象台名称。

然后点击查看天气观测和预报。

如需切换地图:点击带黑十字的绿色按钮放大地图;点击带横线的绿色按钮缩小地图;或者点击绿色箭头查看邻近地区的地图。


METAR-TAF: